sensor_id;sensor_type;location;lat;lon;timestamp;P1;durP1;ratioP1;P2;durP2;ratioP2
14933;SDS011;7560;51.364;12.384;2024-03-08T00:04:41;31.77;;;17.77;;
14933;SDS011;7560;51.364;12.384;2024-03-08T00:09:43;36.45;;;18.95;;
14933;SDS011;7560;51.364;12.384;2024-03-08T00:14:45;37.33;;;18.20;;
14933;SDS011;7560;51.364;12.384;2024-03-08T00:19:47;33.95;;;18.73;;
14933;SDS011;7560;51.364;12.384;2024-03-08T00:24:49;37.55;;;19.70;;
14933;SDS011;7560;51.364;12.384;2024-03-08T00:29:54;32.45;;;17.92;;
14933;SDS011;7560;51.364;12.384;2024-03-08T00:34:56;34.28;;;18.17;;
14933;SDS011;7560;51.364;12.384;2024-03-08T00:39:58;35.20;;;18.23;;
14933;SDS011;7560;51.364;12.384;2024-03-08T00:45:00;38.17;;;19.40;;
14933;SDS011;7560;51.364;12.384;2024-03-08T00:50:02;38.58;;;19.15;;
14933;SDS011;7560;51.364;12.384;2024-03-08T00:55:07;37.08;;;20.15;;
14933;SDS011;7560;51.364;12.384;2024-03-08T01:00:11;36.67;;;18.83;;
14933;SDS011;7560;51.364;12.384;2024-03-08T01:05:14;38.17;;;19.40;;
14933;SDS011;7560;51.364;12.384;2024-03-08T01:10:16;34.75;;;18.33;;
14933;SDS011;7560;51.364;12.384;2024-03-08T01:15:17;33.58;;;17.75;;
14933;SDS011;7560;51.364;12.384;2024-03-08T01:20:20;36.90;;;18.65;;
14933;SDS011;7560;51.364;12.384;2024-03-08T01:25:22;38.75;;;18.65;;
14933;SDS011;7560;51.364;12.384;2024-03-08T01:30:24;39.53;;;19.15;;
14933;SDS011;7560;51.364;12.384;2024-03-08T01:35:26;34.33;;;17.63;;
14933;SDS011;7560;51.364;12.384;2024-03-08T01:40:28;36.33;;;17.52;;
14933;SDS011;7560;51.364;12.384;2024-03-08T01:45:30;37.72;;;18.52;;
14933;SDS011;7560;51.364;12.384;2024-03-08T01:50:35;36.95;;;19.27;;
14933;SDS011;7560;51.364;12.384;2024-03-08T01:55:37;40.15;;;18.48;;
14933;SDS011;7560;51.364;12.384;2024-03-08T02:00:40;36.03;;;18.17;;
14933;SDS011;7560;51.364;12.384;2024-03-08T02:05:44;37.35;;;18.75;;
14933;SDS011;7560;51.364;12.384;2024-03-08T02:10:46;38.25;;;18.65;;
14933;SDS011;7560;51.364;12.384;2024-03-08T02:15:58;39.67;;;18.85;;
14933;SDS011;7560;51.364;12.384;2024-03-08T02:21:02;39.65;;;18.75;;
14933;SDS011;7560;51.364;12.384;2024-03-08T02:26:05;36.10;;;18.23;;
14933;SDS011;7560;51.364;12.384;2024-03-08T02:31:08;33.50;;;16.85;;
14933;SDS011;7560;51.364;12.384;2024-03-08T02:36:10;33.92;;;17.98;;
14933;SDS011;7560;51.364;12.384;2024-03-08T02:41:14;36.67;;;18.55;;
14933;SDS011;7560;51.364;12.384;2024-03-08T02:46:15;37.22;;;18.10;;
14933;SDS011;7560;51.364;12.384;2024-03-08T02:51:17;36.17;;;17.27;;
14933;SDS011;7560;51.364;12.384;2024-03-08T02:56:19;33.20;;;18.10;;
14933;SDS011;7560;51.364;12.384;2024-03-08T03:01:23;35.38;;;17.88;;
14933;SDS011;7560;51.364;12.384;2024-03-08T03:06:24;39.55;;;18.80;;
14933;SDS011;7560;51.364;12.384;2024-03-08T03:11:27;36.70;;;18.23;;
14933;SDS011;7560;51.364;12.384;2024-03-08T03:16:29;37.38;;;18.27;;
14933;SDS011;7560;51.364;12.384;2024-03-08T03:21:30;36.08;;;18.25;;
14933;SDS011;7560;51.364;12.384;2024-03-08T03:26:33;37.55;;;18.80;;
14933;SDS011;7560;51.364;12.384;2024-03-08T03:31:35;40.10;;;18.52;;
14933;SDS011;7560;51.364;12.384;2024-03-08T03:36:37;38.92;;;18.55;;
14933;SDS011;7560;51.364;12.384;2024-03-08T03:41:43;32.90;;;17.23;;
14933;SDS011;7560;51.364;12.384;2024-03-08T03:46:47;39.30;;;18.25;;
14933;SDS011;7560;51.364;12.384;2024-03-08T03:51:49;35.28;;;17.73;;
14933;SDS011;7560;51.364;12.384;2024-03-08T03:56:51;40.70;;;18.33;;
14933;SDS011;7560;51.364;12.384;2024-03-08T04:01:54;39.88;;;18.77;;
14933;SDS011;7560;51.364;12.384;2024-03-08T04:06:56;37.35;;;18.75;;
14933;SDS011;7560;51.364;12.384;2024-03-08T04:11:58;39.78;;;18.00;;
14933;SDS011;7560;51.364;12.384;2024-03-08T04:17:00;40.05;;;19.60;;
14933;SDS011;7560;51.364;12.384;2024-03-08T04:22:01;37.90;;;18.55;;
14933;SDS011;7560;51.364;12.384;2024-03-08T04:27:03;38.47;;;19.48;;
14933;SDS011;7560;51.364;12.384;2024-03-08T04:32:06;39.20;;;18.27;;
14933;SDS011;7560;51.364;12.384;2024-03-08T04:37:10;39.88;;;18.70;;
14933;SDS011;7560;51.364;12.384;2024-03-08T04:42:14;43.65;;;18.85;;
14933;SDS011;7560;51.364;12.384;2024-03-08T04:47:19;33.22;;;17.30;;
14933;SDS011;7560;51.364;12.384;2024-03-08T04:52:21;42.92;;;19.90;;
14933;SDS011;7560;51.364;12.384;2024-03-08T04:57:23;35.95;;;17.70;;
14933;SDS011;7560;51.364;12.384;2024-03-08T05:02:27;37.50;;;19.15;;
14933;SDS011;7560;51.364;12.384;2024-03-08T05:07:28;37.38;;;17.52;;
14933;SDS011;7560;51.364;12.384;2024-03-08T05:12:30;40.10;;;18.98;;
14933;SDS011;7560;51.364;12.384;2024-03-08T05:17:32;38.30;;;17.35;;
14933;SDS011;7560;51.364;12.384;2024-03-08T05:22:34;37.92;;;19.90;;
14933;SDS011;7560;51.364;12.384;2024-03-08T05:27:36;41.53;;;19.33;;
14933;SDS011;7560;51.364;12.384;2024-03-08T05:32:38;40.13;;;19.45;;
14933;SDS011;7560;51.364;12.384;2024-03-08T05:37:40;42.22;;;19.05;;
14933;SDS011;7560;51.364;12.384;2024-03-08T05:42:42;42.80;;;20.35;;
14933;SDS011;7560;51.364;12.384;2024-03-08T05:47:44;45.20;;;20.20;;
14933;SDS011;7560;51.364;12.384;2024-03-08T05:52:46;45.22;;;20.98;;
14933;SDS011;7560;51.364;12.384;2024-03-08T05:57:50;44.15;;;20.38;;
14933;SDS011;7560;51.364;12.384;2024-03-08T06:02:55;45.03;;;20.25;;
14933;SDS011;7560;51.364;12.384;2024-03-08T06:07:57;42.50;;;20.75;;
14933;SDS011;7560;51.364;12.384;2024-03-08T06:12:59;42.30;;;19.48;;
14933;SDS011;7560;51.364;12.384;2024-03-08T06:18:01;44.90;;;20.90;;
14933;SDS011;7560;51.364;12.384;2024-03-08T06:23:04;48.65;;;22.27;;
14933;SDS011;7560;51.364;12.384;2024-03-08T06:28:06;41.85;;;20.40;;
14933;SDS011;7560;51.364;12.384;2024-03-08T06:33:07;45.55;;;21.15;;
14933;SDS011;7560;51.364;12.384;2024-03-08T06:38:09;44.53;;;21.50;;
14933;SDS011;7560;51.364;12.384;2024-03-08T06:43:12;44.50;;;21.13;;
14933;SDS011;7560;51.364;12.384;2024-03-08T06:48:17;40.40;;;19.63;;
14933;SDS011;7560;51.364;12.384;2024-03-08T06:53:19;47.38;;;20.80;;
14933;SDS011;7560;51.364;12.384;2024-03-08T06:58:25;45.05;;;19.95;;
14933;SDS011;7560;51.364;12.384;2024-03-08T07:03:26;42.70;;;21.73;;
14933;SDS011;7560;51.364;12.384;2024-03-08T07:08:31;41.10;;;21.02;;
14933;SDS011;7560;51.364;12.384;2024-03-08T07:13:33;44.63;;;22.17;;
14933;SDS011;7560;51.364;12.384;2024-03-08T07:18:35;42.95;;;20.88;;
14933;SDS011;7560;51.364;12.384;2024-03-08T07:23:41;45.53;;;22.30;;
14933;SDS011;7560;51.364;12.384;2024-03-08T07:29:09;43.25;;;20.42;;
14933;SDS011;7560;51.364;12.384;2024-03-08T07:34:11;37.80;;;20.50;;
14933;SDS011;7560;51.364;12.384;2024-03-08T07:39:13;38.45;;;19.77;;
14933;SDS011;7560;51.364;12.384;2024-03-08T07:44:16;42.50;;;22.23;;
14933;SDS011;7560;51.364;12.384;2024-03-08T07:49:17;44.30;;;19.75;;
14933;SDS011;7560;51.364;12.384;2024-03-08T07:54:19;38.20;;;20.38;;
14933;SDS011;7560;51.364;12.384;2024-03-08T07:59:21;41.28;;;21.38;;
14933;SDS011;7560;51.364;12.384;2024-03-08T08:04:23;46.13;;;21.52;;
14933;SDS011;7560;51.364;12.384;2024-03-08T08:09:26;38.70;;;20.20;;
14933;SDS011;7560;51.364;12.384;2024-03-08T08:14:35;42.60;;;20.90;;
14933;SDS011;7560;51.364;12.384;2024-03-08T08:19:37;40.38;;;20.95;;
14933;SDS011;7560;51.364;12.384;2024-03-08T08:24:41;42.97;;;21.25;;
14933;SDS011;7560;51.364;12.384;2024-03-08T08:29:43;37.83;;;20.60;;
14933;SDS011;7560;51.364;12.384;2024-03-08T08:34:47;40.53;;;20.38;;
14933;SDS011;7560;51.364;12.384;2024-03-08T08:39:49;41.53;;;20.45;;
14933;SDS011;7560;51.364;12.384;2024-03-08T08:44:52;42.10;;;20.20;;
14933;SDS011;7560;51.364;12.384;2024-03-08T08:49:56;39.63;;;20.42;;
14933;SDS011;7560;51.364;12.384;2024-03-08T08:54:58;44.50;;;21.73;;
14933;SDS011;7560;51.364;12.384;2024-03-08T09:00:00;39.83;;;21.13;;
14933;SDS011;7560;51.364;12.384;2024-03-08T09:05:02;36.95;;;20.52;;
14933;SDS011;7560;51.364;12.384;2024-03-08T09:10:05;40.45;;;20.55;;
14933;SDS011;7560;51.364;12.384;2024-03-08T09:15:18;37.70;;;20.60;;
14933;SDS011;7560;51.364;12.384;2024-03-08T09:20:21;36.28;;;19.73;;
14933;SDS011;7560;51.364;12.384;2024-03-08T09:25:23;39.72;;;21.00;;
14933;SDS011;7560;51.364;12.384;2024-03-08T09:30:26;38.97;;;21.00;;
14933;SDS011;7560;51.364;12.384;2024-03-08T09:35:28;41.42;;;21.40;;
14933;SDS011;7560;51.364;12.384;2024-03-08T09:40:31;39.65;;;21.27;;
14933;SDS011;7560;51.364;12.384;2024-03-08T09:45:35;38.75;;;21.63;;
14933;SDS011;7560;51.364;12.384;2024-03-08T09:50:42;37.80;;;20.73;;
14933;SDS011;7560;51.364;12.384;2024-03-08T09:55:45;36.47;;;20.63;;
14933;SDS011;7560;51.364;12.384;2024-03-08T10:00:47;37.67;;;20.85;;
14933;SDS011;7560;51.364;12.384;2024-03-08T10:05:48;37.85;;;20.25;;
14933;SDS011;7560;51.364;12.384;2024-03-08T10:10:51;38.10;;;19.65;;
14933;SDS011;7560;51.364;12.384;2024-03-08T10:15:53;34.63;;;19.35;;
14933;SDS011;7560;51.364;12.384;2024-03-08T10:21:02;39.15;;;20.58;;
14933;SDS011;7560;51.364;12.384;2024-03-08T10:26:12;36.22;;;19.92;;
14933;SDS011;7560;51.364;12.384;2024-03-08T10:31:18;34.28;;;18.98;;
14933;SDS011;7560;51.364;12.384;2024-03-08T10:36:20;37.33;;;19.48;;
14933;SDS011;7560;51.364;12.384;2024-03-08T10:41:23;36.00;;;18.33;;
14933;SDS011;7560;51.364;12.384;2024-03-08T10:46:30;34.63;;;18.55;;
14933;SDS011;7560;51.364;12.384;2024-03-08T10:52:03;34.30;;;18.45;;
14933;SDS011;7560;51.364;12.384;2024-03-08T10:57:06;34.33;;;17.98;;
14933;SDS011;7560;51.364;12.384;2024-03-08T11:02:11;31.70;;;17.77;;
14933;SDS011;7560;51.364;12.384;2024-03-08T11:07:13;33.92;;;18.70;;
14933;SDS011;7560;51.364;12.384;2024-03-08T11:22:41;32.70;;;18.85;;
14933;SDS011;7560;51.364;12.384;2024-03-08T11:28:06;33.20;;;18.70;;
14933;SDS011;7560;51.364;12.384;2024-03-08T11:33:11;35.55;;;19.58;;
14933;SDS011;7560;51.364;12.384;2024-03-08T11:38:15;33.33;;;17.80;;
14933;SDS011;7560;51.364;12.384;2024-03-08T11:43:18;32.92;;;18.63;;
14933;SDS011;7560;51.364;12.384;2024-03-08T11:48:21;34.50;;;19.35;;
14933;SDS011;7560;51.364;12.384;2024-03-08T11:53:23;31.08;;;18.67;;
14933;SDS011;7560;51.364;12.384;2024-03-08T11:58:26;32.08;;;18.35;;
14933;SDS011;7560;51.364;12.384;2024-03-08T12:03:29;30.23;;;17.08;;
14933;SDS011;7560;51.364;12.384;2024-03-08T12:08:35;32.47;;;18.17;;
14933;SDS011;7560;51.364;12.384;2024-03-08T12:13:37;33.72;;;19.48;;
14933;SDS011;7560;51.364;12.384;2024-03-08T12:18:39;33.35;;;19.25;;
14933;SDS011;7560;51.364;12.384;2024-03-08T12:23:40;33.33;;;18.30;;
14933;SDS011;7560;51.364;12.384;2024-03-08T12:28:44;32.88;;;19.33;;
14933;SDS011;7560;51.364;12.384;2024-03-08T12:33:49;31.83;;;18.50;;
14933;SDS011;7560;51.364;12.384;2024-03-08T12:38:56;34.88;;;19.17;;
14933;SDS011;7560;51.364;12.384;2024-03-08T12:44:00;30.15;;;18.10;;
14933;SDS011;7560;51.364;12.384;2024-03-08T12:49:02;32.95;;;18.88;;
14933;SDS011;7560;51.364;12.384;2024-03-08T12:54:05;34.42;;;19.33;;
14933;SDS011;7560;51.364;12.384;2024-03-08T12:59:08;36.83;;;20.50;;
14933;SDS011;7560;51.364;12.384;2024-03-08T13:04:11;35.95;;;20.88;;
14933;SDS011;7560;51.364;12.384;2024-03-08T13:09:13;30.60;;;18.50;;
14933;SDS011;7560;51.364;12.384;2024-03-08T13:14:15;33.30;;;19.60;;
14933;SDS011;7560;51.364;12.384;2024-03-08T13:19:17;35.42;;;19.70;;
14933;SDS011;7560;51.364;12.384;2024-03-08T13:24:23;33.13;;;19.13;;
14933;SDS011;7560;51.364;12.384;2024-03-08T13:29:25;33.67;;;18.40;;
14933;SDS011;7560;51.364;12.384;2024-03-08T13:34:27;45.50;;;21.23;;
14933;SDS011;7560;51.364;12.384;2024-03-08T13:39:30;30.05;;;18.45;;
14933;SDS011;7560;51.364;12.384;2024-03-08T13:44:47;31.58;;;19.25;;
14933;SDS011;7560;51.364;12.384;2024-03-08T13:49:51;30.92;;;19.15;;
14933;SDS011;7560;51.364;12.384;2024-03-08T13:54:53;34.08;;;19.35;;
14933;SDS011;7560;51.364;12.384;2024-03-08T13:59:55;33.60;;;19.23;;
14933;SDS011;7560;51.364;12.384;2024-03-08T14:10:13;33.38;;;18.92;;
14933;SDS011;7560;51.364;12.384;2024-03-08T14:15:16;29.83;;;18.20;;
14933;SDS011;7560;51.364;12.384;2024-03-08T14:20:18;35.50;;;19.75;;
14933;SDS011;7560;51.364;12.384;2024-03-08T14:25:20;32.78;;;18.42;;
14933;SDS011;7560;51.364;12.384;2024-03-08T14:30:25;30.50;;;18.98;;
14933;SDS011;7560;51.364;12.384;2024-03-08T14:35:40;35.33;;;19.60;;
14933;SDS011;7560;51.364;12.384;2024-03-08T14:40:42;34.55;;;18.98;;
14933;SDS011;7560;51.364;12.384;2024-03-08T14:45:48;31.55;;;18.67;;
14933;SDS011;7560;51.364;12.384;2024-03-08T14:50:50;32.97;;;19.30;;
14933;SDS011;7560;51.364;12.384;2024-03-08T14:55:52;32.35;;;19.80;;
14933;SDS011;7560;51.364;12.384;2024-03-08T15:00:54;33.30;;;19.13;;
14933;SDS011;7560;51.364;12.384;2024-03-08T15:06:00;48.03;;;24.23;;
14933;SDS011;7560;51.364;12.384;2024-03-08T15:11:02;28.67;;;17.77;;
14933;SDS011;7560;51.364;12.384;2024-03-08T15:16:05;32.80;;;18.92;;
14933;SDS011;7560;51.364;12.384;2024-03-08T15:21:08;28.73;;;18.13;;
14933;SDS011;7560;51.364;12.384;2024-03-08T15:26:10;28.52;;;17.17;;
14933;SDS011;7560;51.364;12.384;2024-03-08T15:31:12;30.58;;;18.35;;
14933;SDS011;7560;51.364;12.384;2024-03-08T15:36:14;29.20;;;17.73;;
14933;SDS011;7560;51.364;12.384;2024-03-08T15:41:18;27.35;;;16.95;;
14933;SDS011;7560;51.364;12.384;2024-03-08T15:46:22;26.17;;;17.17;;
14933;SDS011;7560;51.364;12.384;2024-03-08T15:51:24;30.83;;;18.65;;
14933;SDS011;7560;51.364;12.384;2024-03-08T15:56:27;28.90;;;18.48;;
14933;SDS011;7560;51.364;12.384;2024-03-08T16:01:29;29.55;;;18.05;;
14933;SDS011;7560;51.364;12.384;2024-03-08T16:06:32;30.48;;;17.92;;
14933;SDS011;7560;51.364;12.384;2024-03-08T16:11:34;26.30;;;17.42;;
14933;SDS011;7560;51.364;12.384;2024-03-08T16:16:39;29.00;;;17.92;;
14933;SDS011;7560;51.364;12.384;2024-03-08T16:21:43;29.55;;;18.20;;
14933;SDS011;7560;51.364;12.384;2024-03-08T16:26:54;29.02;;;17.73;;
14933;SDS011;7560;51.364;12.384;2024-03-08T16:31:56;31.55;;;18.55;;
14933;SDS011;7560;51.364;12.384;2024-03-08T16:36:58;27.83;;;16.80;;
14933;SDS011;7560;51.364;12.384;2024-03-08T16:42:03;30.42;;;16.67;;
14933;SDS011;7560;51.364;12.384;2024-03-08T16:47:10;28.13;;;16.67;;
14933;SDS011;7560;51.364;12.384;2024-03-08T16:52:13;26.27;;;15.73;;
14933;SDS011;7560;51.364;12.384;2024-03-08T16:57:16;30.83;;;16.73;;
14933;SDS011;7560;51.364;12.384;2024-03-08T17:02:18;25.52;;;15.75;;
14933;SDS011;7560;51.364;12.384;2024-03-08T17:07:20;25.58;;;15.48;;
14933;SDS011;7560;51.364;12.384;2024-03-08T17:12:23;30.20;;;17.45;;
14933;SDS011;7560;51.364;12.384;2024-03-08T17:17:29;30.20;;;17.05;;
14933;SDS011;7560;51.364;12.384;2024-03-08T17:22:34;28.52;;;16.65;;
14933;SDS011;7560;51.364;12.384;2024-03-08T17:27:36;31.52;;;17.70;;
14933;SDS011;7560;51.364;12.384;2024-03-08T17:32:40;27.10;;;15.25;;
14933;SDS011;7560;51.364;12.384;2024-03-08T17:37:42;27.42;;;15.60;;
14933;SDS011;7560;51.364;12.384;2024-03-08T17:42:57;27.02;;;15.30;;
14933;SDS011;7560;51.364;12.384;2024-03-08T17:48:13;25.65;;;14.80;;
14933;SDS011;7560;51.364;12.384;2024-03-08T17:53:19;27.67;;;15.45;;
14933;SDS011;7560;51.364;12.384;2024-03-08T17:58:21;25.70;;;14.90;;
14933;SDS011;7560;51.364;12.384;2024-03-08T18:03:25;25.52;;;14.75;;
14933;SDS011;7560;51.364;12.384;2024-03-08T18:08:30;26.42;;;15.02;;
14933;SDS011;7560;51.364;12.384;2024-03-08T18:13:33;27.27;;;15.25;;
14933;SDS011;7560;51.364;12.384;2024-03-08T18:18:36;28.70;;;16.00;;
14933;SDS011;7560;51.364;12.384;2024-03-08T18:23:39;27.67;;;15.95;;
14933;SDS011;7560;51.364;12.384;2024-03-08T18:28:41;33.08;;;16.45;;
14933;SDS011;7560;51.364;12.384;2024-03-08T18:33:47;29.70;;;16.73;;
14933;SDS011;7560;51.364;12.384;2024-03-08T18:38:50;34.00;;;17.88;;
14933;SDS011;7560;51.364;12.384;2024-03-08T18:43:53;32.70;;;17.70;;
14933;SDS011;7560;51.364;12.384;2024-03-08T18:48:59;32.58;;;18.15;;
14933;SDS011;7560;51.364;12.384;2024-03-08T18:54:01;37.05;;;19.92;;
14933;SDS011;7560;51.364;12.384;2024-03-08T18:59:04;38.70;;;19.92;;
14933;SDS011;7560;51.364;12.384;2024-03-08T19:04:10;41.60;;;21.05;;
14933;SDS011;7560;51.364;12.384;2024-03-08T19:09:14;37.92;;;20.02;;
14933;SDS011;7560;51.364;12.384;2024-03-08T19:14:15;39.70;;;22.45;;
14933;SDS011;7560;51.364;12.384;2024-03-08T19:19:19;40.83;;;21.05;;
14933;SDS011;7560;51.364;12.384;2024-03-08T19:24:23;40.53;;;22.15;;
14933;SDS011;7560;51.364;12.384;2024-03-08T19:29:25;41.47;;;22.00;;
14933;SDS011;7560;51.364;12.384;2024-03-08T19:34:27;46.03;;;23.83;;
14933;SDS011;7560;51.364;12.384;2024-03-08T19:39:28;46.30;;;23.55;;
14933;SDS011;7560;51.364;12.384;2024-03-08T19:44:32;48.28;;;25.67;;
14933;SDS011;7560;51.364;12.384;2024-03-08T19:49:34;46.30;;;24.38;;
14933;SDS011;7560;51.364;12.384;2024-03-08T19:54:36;43.70;;;23.45;;
14933;SDS011;7560;51.364;12.384;2024-03-08T19:59:39;47.70;;;24.92;;
14933;SDS011;7560;51.364;12.384;2024-03-08T20:04:46;46.88;;;24.00;;
14933;SDS011;7560;51.364;12.384;2024-03-08T20:09:47;46.85;;;24.60;;
14933;SDS011;7560;51.364;12.384;2024-03-08T20:14:49;49.10;;;24.77;;
14933;SDS011;7560;51.364;12.384;2024-03-08T20:19:51;49.25;;;24.98;;
14933;SDS011;7560;51.364;12.384;2024-03-08T20:24:54;47.20;;;24.55;;
14933;SDS011;7560;51.364;12.384;2024-03-08T20:29:56;49.95;;;25.48;;
14933;SDS011;7560;51.364;12.384;2024-03-08T20:34:59;50.17;;;25.15;;
14933;SDS011;7560;51.364;12.384;2024-03-08T20:40:01;49.30;;;25.27;;
14933;SDS011;7560;51.364;12.384;2024-03-08T20:45:03;54.65;;;25.98;;
14933;SDS011;7560;51.364;12.384;2024-03-08T20:50:05;50.25;;;25.20;;
14933;SDS011;7560;51.364;12.384;2024-03-08T20:55:14;53.53;;;27.52;;
14933;SDS011;7560;51.364;12.384;2024-03-08T21:00:18;50.65;;;26.88;;
14933;SDS011;7560;51.364;12.384;2024-03-08T21:05:43;53.97;;;26.95;;
14933;SDS011;7560;51.364;12.384;2024-03-08T21:10:45;52.67;;;26.80;;
14933;SDS011;7560;51.364;12.384;2024-03-08T21:15:48;58.30;;;28.27;;
14933;SDS011;7560;51.364;12.384;2024-03-08T21:20:50;52.33;;;26.73;;
14933;SDS011;7560;51.364;12.384;2024-03-08T21:25:53;57.92;;;28.70;;
14933;SDS011;7560;51.364;12.384;2024-03-08T21:30:56;54.40;;;27.55;;
14933;SDS011;7560;51.364;12.384;2024-03-08T21:36:00;53.42;;;27.02;;
14933;SDS011;7560;51.364;12.384;2024-03-08T21:41:02;58.15;;;28.67;;
14933;SDS011;7560;51.364;12.384;2024-03-08T21:46:09;56.92;;;28.48;;
14933;SDS011;7560;51.364;12.384;2024-03-08T21:51:13;53.20;;;27.35;;
14933;SDS011;7560;51.364;12.384;2024-03-08T21:56:15;56.33;;;28.17;;
14933;SDS011;7560;51.364;12.384;2024-03-08T22:01:18;55.40;;;27.80;;
14933;SDS011;7560;51.364;12.384;2024-03-08T22:06:21;53.13;;;27.67;;
14933;SDS011;7560;51.364;12.384;2024-03-08T22:11:22;50.90;;;26.08;;
14933;SDS011;7560;51.364;12.384;2024-03-08T22:16:24;52.22;;;26.15;;
14933;SDS011;7560;51.364;12.384;2024-03-08T22:21:26;51.80;;;25.40;;
14933;SDS011;7560;51.364;12.384;2024-03-08T22:26:29;51.78;;;26.02;;
14933;SDS011;7560;51.364;12.384;2024-03-08T22:31:34;51.97;;;25.48;;
14933;SDS011;7560;51.364;12.384;2024-03-08T22:36:36;46.80;;;24.40;;
14933;SDS011;7560;51.364;12.384;2024-03-08T22:41:37;49.97;;;24.15;;
14933;SDS011;7560;51.364;12.384;2024-03-08T22:46:40;48.22;;;24.60;;
14933;SDS011;7560;51.364;12.384;2024-03-08T22:51:42;46.45;;;23.08;;
14933;SDS011;7560;51.364;12.384;2024-03-08T22:56:43;47.25;;;24.27;;
14933;SDS011;7560;51.364;12.384;2024-03-08T23:01:47;47.97;;;24.90;;
14933;SDS011;7560;51.364;12.384;2024-03-08T23:06:49;55.10;;;25.60;;
14933;SDS011;7560;51.364;12.384;2024-03-08T23:11:51;50.10;;;24.92;;
14933;SDS011;7560;51.364;12.384;2024-03-08T23:16:53;48.03;;;23.58;;
14933;SDS011;7560;51.364;12.384;2024-03-08T23:21:58;54.47;;;25.63;;
14933;SDS011;7560;51.364;12.384;2024-03-08T23:27:02;48.80;;;23.90;;
14933;SDS011;7560;51.364;12.384;2024-03-08T23:32:04;47.67;;;24.20;;
14933;SDS011;7560;51.364;12.384;2024-03-08T23:37:07;55.10;;;25.38;;
14933;SDS011;7560;51.364;12.384;2024-03-08T23:42:09;51.55;;;24.58;;
14933;SDS011;7560;51.364;12.384;2024-03-08T23:47:12;52.00;;;25.35;;
14933;SDS011;7560;51.364;12.384;2024-03-08T23:52:14;53.00;;;24.90;;
14933;SDS011;7560;51.364;12.384;2024-03-08T23:57:15;49.90;;;25.13;;
